Archival Weather

Chicago O'Hare International

Chicago, Illinois (KORD)

Report from: Saturday, March 18, 2023 4:51 AM CDT
Current time: Saturday, March 2, 2024 3:26 AM CST

Current weather – Weather history – Daily summaries
Weather forecast

Temperature-8.9°C (16.0°F)
Wind chill-17.7°C (0.1°F)
Dew point-15.6°C (3.9°F)
Winds 15 kts (7.7 m/s, 17.3 mph) West (270°)
Wind gusts 24 kts (12.3 m/s, 27.6 mph)
Peak wind 31 kts (15.9 m/s, 35.7 mph) West-Northwest (290°) at 09:12
Visibility10 mi. (16.1 km)
Clouds Ceiling: Broken clouds 3,300 ft. (1,006 m)
Altimeter29.89 in.Hg (1012 mB)
Relative humidity58 %
Density altitude-2,945 ft. (-898 m)
Sea-level pressure101.3 kPa (1013 mB, 29.92 in.Hg)
Remarks Automated weather observing station with precipitation discriminator
Flight conditions Visual Meteorological Conditions
Raw dataKORD 180951Z 27015G24KT 10SM BKN033 M09/M16 A2989 RMK AO2 PK WND 29031/0912 SLP132 T10891156
An error has occurred. This application may no longer respond until reloaded. Reload 🗙